Time;durP1;ratioP1;P1;durP2;ratioP2;P2;SDS_P1;SDS_P2;PMS_P1;PMS_P2;Temp;Humidity;BMP_temperature;BMP_pressure;BME280_temperature;BME280_humidity;BME280_pressure;Samples;Min_cycle;Max_cycle;Signal;HPM_P1;HPM_P2
2022/03/29 00:01:10;;;;;;;29.67;13.52;;;;;;;10.33;100.00;101363.91;5058776;28;20070;-90
2022/03/29 00:03:42;;;;;;;29.02;15.35;;;;;;;10.60;100.00;101363.13;5069796;28;20054;-89
2022/03/29 00:06:09;;;;;;;25.80;14.18;;;;;;;10.68;100.00;101370.81;5072197;28;20815;-89
2022/03/29 00:08:36;;;;;;;28.60;15.25;;;;;;;10.57;100.00;101349.28;5067386;28;20128;-89
2022/03/29 00:11:03;;;;;;;25.25;13.82;;;;;;;10.22;100.00;101330.97;5052251;28;20130;-90
2022/03/29 00:13:29;;;;;;;23.30;11.57;;;;;;;10.44;100.00;101361.84;5063030;28;20406;-89
2022/03/29 00:15:56;;;;;;;27.17;14.35;;;;;;;10.29;100.00;101339.53;5050845;28;20422;-88
2022/03/29 00:18:23;;;;;;;26.70;13.38;;;;;;;10.51;100.00;101358.16;5050980;28;20057;-89
2022/03/29 00:20:50;;;;;;;39.00;15.43;;;;;;;10.58;100.00;101356.22;5059213;28;20047;-89
2022/03/29 00:23:18;;;;;;;30.48;15.93;;;;;;;10.39;100.00;101346.28;5069589;28;20080;-87
2022/03/29 00:25:44;;;;;;;34.25;14.98;;;;;;;10.37;100.00;101355.06;5075654;28;20082;-89
2022/03/29 00:28:11;;;;;;;27.58;14.00;;;;;;;10.17;100.00;101340.72;5074706;28;20598;-89
2022/03/29 00:30:38;;;;;;;23.85;13.10;;;;;;;9.95;100.00;101329.06;5073354;28;20055;-89
2022/03/29 00:33:05;;;;;;;29.48;14.80;;;;;;;10.05;100.00;101331.41;5073990;28;20857;-89
2022/03/29 00:35:32;;;;;;;27.80;14.60;;;;;;;10.01;100.00;101329.78;5074788;28;20066;-89
2022/03/29 00:37:59;;;;;;;26.23;13.60;;;;;;;10.18;100.00;101331.97;5070507;28;20127;-88
2022/03/29 00:40:27;;;;;;;26.42;13.80;;;;;;;10.11;100.00;101313.84;5054050;28;20049;-88
2022/03/29 00:42:53;;;;;;;31.13;14.25;;;;;;;10.34;100.00;101342.03;5064411;28;20127;-89
2022/03/29 00:45:20;;;;;;;19.67;9.50;;;;;;;10.27;100.00;101325.63;5073917;28;20385;-88
2022/03/29 00:47:47;;;;;;;26.95;13.52;;;;;;;10.24;100.00;101350.13;5075025;28;20048;-89
2022/03/29 00:50:14;;;;;;;30.52;14.85;;;;;;;9.91;100.00;101296.06;5074147;28;20075;-89
2022/03/29 00:52:41;;;;;;;33.22;15.20;;;;;;;10.05;100.00;101330.56;5066100;28;20047;-89
2022/03/29 00:55:12;;;;;;;26.08;14.30;;;;;;;9.74;100.00;101314.78;5063544;28;20052;-89
2022/03/29 00:57:40;;;;;;;25.52;13.23;;;;;;;10.13;100.00;101330.34;5072528;28;20098;-90
2022/03/29 01:00:07;;;;;;;27.20;14.00;;;;;;;10.03;100.00;101337.59;5095056;28;20051;-89
2022/03/29 01:02:35;;;;;;;27.67;14.23;;;;;;;9.93;100.00;101330.88;5083910;28;20051;-89
2022/03/29 01:05:02;;;;;;;28.27;14.15;;;;;;;9.93;100.00;101333.50;5074316;28;20049;-89
2022/03/29 01:07:29;;;;;;;28.80;14.50;;;;;;;9.92;100.00;101337.03;5073641;28;20045;-89
2022/03/29 01:09:58;;;;;;;29.75;14.55;;;;;;;9.85;100.00;101315.38;5073192;28;20055;-88
2022/03/29 01:12:25;;;;;;;28.63;14.73;;;;;;;9.93;100.00;101329.09;5072344;28;20076;-90
2022/03/29 01:14:52;;;;;;;34.08;15.40;;;;;;;9.68;100.00;101292.25;5074535;28;20124;-89
2022/03/29 01:17:39;;;;;;;26.40;14.00;;;;;;;9.73;100.00;101308.69;5074274;28;20060;-90
2022/03/29 01:20:24;;;;;;;31.00;14.80;;;;;;;9.77;100.00;101319.94;5074516;28;20393;-90
2022/03/29 01:22:52;;;;;;;25.10;13.75;;;;;;;9.76;100.00;101320.84;5063168;28;20107;-89
2022/03/29 01:25:23;;;;;;;34.70;15.60;;;;;;;9.24;100.00;101279.38;5073486;28;20048;-89
2022/03/29 01:27:51;;;;;;;33.03;17.48;;;;;;;9.05;100.00;101301.59;5074466;28;20870;-89
2022/03/29 01:30:20;;;;;;;36.53;20.10;;;;;;;9.19;100.00;101324.78;5072858;28;20049;-90
2022/03/29 01:32:49;;;;;;;36.33;16.90;;;;;;;8.98;100.00;101303.47;5073027;28;20316;-90
2022/03/29 01:35:17;;;;;;;28.25;15.38;;;;;;;9.20;100.00;101323.91;5072950;28;20140;-90
2022/03/29 01:37:44;;;;;;;31.17;16.38;;;;;;;9.52;100.00;101322.28;5068723;28;20132;-89
2022/03/29 01:40:15;;;;;;;29.52;14.88;;;;;;;9.21;100.00;101305.59;5053091;28;20057;-88
2022/03/29 01:43:00;;;;;;;28.23;15.20;;;;;;;9.07;100.00;101292.81;5062689;28;20060;-88
2022/03/29 01:45:29;;;;;;;42.88;20.48;;;;;;;8.98;100.00;101297.38;5072090;28;20053;-89
2022/03/29 01:47:56;;;;;;;29.25;14.35;;;;;;;9.08;100.00;101293.69;5051891;28;20041;-89
2022/03/29 01:50:24;;;;;;;34.10;17.30;;;;;;;9.18;100.00;101303.03;5053870;28;20083;-89
2022/03/29 01:52:51;;;;;;;33.53;16.67;;;;;;;9.00;100.00;101306.06;5069502;28;20132;-89
2022/03/29 01:55:21;;;;;;;32.72;18.25;;;;;;;8.66;100.00;101286.75;5064114;28;20141;-89
2022/03/29 01:57:49;;;;;;;32.72;17.17;;;;;;;8.97;100.00;101266.94;5052623;28;20812;-89
2022/03/29 02:00:31;;;;;;;28.27;16.38;;;;;;;8.90;100.00;101256.63;5052157;28;20053;-89
2022/03/29 02:03:00;;;;;;;33.45;19.10;;;;;;;8.96;100.00;101286.09;5064532;28;20053;-88
2022/03/29 02:05:30;;;;;;;40.55;18.83;;;;;;;9.04;100.00;101279.81;5071788;28;20131;-89
2022/03/29 02:07:57;;;;;;;38.15;18.52;;;;;;;8.97;100.00;101280.84;5073230;28;20037;-89
2022/03/29 02:10:24;;;;;;;40.22;21.60;;;;;;;9.04;100.00;101258.06;5072891;28;20162;-89
2022/03/29 02:12:52;;;;;;;25.48;12.85;;;;;;;9.40;100.00;101303.41;5072050;28;20139;-89
2022/03/29 02:15:19;;;;;;;28.80;13.73;;;;;;;9.03;100.00;101280.75;5072996;28;20409;-88
2022/03/29 02:17:48;;;;;;;42.38;22.27;;;;;;;9.21;100.00;101299.50;5063747;28;20123;-90
2022/03/29 02:20:16;;;;;;;38.15;20.23;;;;;;;8.96;100.00;101224.31;5072332;28;20069;-89
2022/03/29 02:22:44;;;;;;;34.35;17.80;;;;;;;9.17;100.00;101271.72;5070761;28;20059;-89
2022/03/29 02:25:12;;;;;;;28.52;14.80;;;;;;;9.34;100.00;101289.63;5068670;28;20395;-89
2022/03/29 02:27:44;;;;;;;46.65;19.73;;;;;;;9.29;100.00;101287.09;5070304;28;20120;-89
2022/03/29 02:30:14;;;;;;;25.63;13.05;;;;;;;9.02;100.00;101221.53;5071370;28;20143;-89
2022/03/29 02:32:42;;;;;;;45.28;19.38;;;;;;;9.16;100.00;101270.00;5071718;28;20490;-88
2022/03/29 02:35:09;;;;;;;28.00;15.75;;;;;;;8.73;100.00;101198.72;5072177;28;20044;-89
2022/03/29 02:37:37;;;;;;;35.17;18.80;;;;;;;8.73;100.00;101241.34;5073054;28;20928;-89
2022/03/29 02:40:06;;;;;;;29.92;16.00;;;;;;;8.86;100.00;101207.97;5072775;28;20147;-89
2022/03/29 02:42:39;;;;;;;31.02;15.75;;;;;;;8.87;100.00;101199.25;5070965;28;20442;-88
2022/03/29 02:45:07;;;;;;;33.03;16.90;;;;;;;9.20;100.00;101255.97;5071358;28;20056;-87
2022/03/29 02:47:33;;;;;;;38.85;20.63;;;;;;;9.04;100.00;101251.09;5071033;28;20059;-89
2022/03/29 02:50:00;;;;;;;37.75;21.75;;;;;;;9.18;100.00;101257.75;5071880;28;20032;-88
2022/03/29 02:52:27;;;;;;;29.38;14.55;;;;;;;9.18;100.00;101232.50;5070636;28;20071;-88
2022/03/29 02:54:54;;;;;;;26.50;12.60;;;;;;;9.22;100.00;101201.91;5068139;28;20092;-88
2022/03/29 02:57:20;;;;;;;42.97;18.30;;;;;;;9.10;100.00;101192.63;5051222;28;20049;-88
2022/03/29 02:59:48;;;;;;;29.83;17.17;;;;;;;9.22;100.00;101217.59;5051380;28;20045;-89
2022/03/29 03:02:14;;;;;;;38.53;18.80;;;;;;;9.26;100.00;101182.66;5056092;28;20049;-90
2022/03/29 03:04:41;;;;;;;40.80;22.98;;;;;;;8.88;100.00;101211.41;5071496;28;20044;-89
2022/03/29 03:07:08;;;;;;;31.10;17.20;;;;;;;9.25;100.00;101227.97;5067750;28;20044;-86
2022/03/29 03:09:35;;;;;;;31.58;16.13;;;;;;;9.35;100.00;101229.47;5050140;28;20129;-88
2022/03/29 03:12:01;;;;;;;26.38;14.18;;;;;;;9.29;100.00;101217.41;5054371;28;20691;-87
2022/03/29 03:14:28;;;;;;;33.45;16.17;;;;;;;9.51;100.00;101235.19;5070987;28;20048;-87
2022/03/29 03:16:55;;;;;;;27.80;13.88;;;;;;;9.77;100.00;101231.03;5087569;28;20524;-87
2022/03/29 03:19:35;;;;;;;33.63;17.80;;;;;;;9.73;100.00;101237.25;5087572;28;20081;-88
2022/03/29 03:22:03;;;;;;;33.47;17.55;;;;;;;9.75;100.00;101236.28;5070222;28;20497;-84
2022/03/29 03:24:30;;;;;;;34.75;17.35;;;;;;;9.72;100.00;101218.09;5070237;28;20052;-86
2022/03/29 03:26:57;;;;;;;25.90;13.25;;;;;;;9.94;100.00;101233.22;5070705;28;20067;-85
2022/03/29 03:29:24;;;;;;;31.33;17.48;;;;;;;9.80;100.00;101226.56;5069868;28;20119;-87
2022/03/29 03:31:51;;;;;;;48.15;23.15;;;;;;;9.90;100.00;101229.81;5071254;28;20150;-90
2022/03/29 03:34:18;;;;;;;30.27;16.45;;;;;;;9.46;100.00;101190.00;5066852;28;20052;-86
2022/03/29 03:36:45;;;;;;;33.97;16.13;;;;;;;9.58;100.00;101183.56;5085546;28;20044;-85
2022/03/29 03:39:11;;;;;;;38.38;18.05;;;;;;;9.58;100.00;101196.66;5074028;28;20479;-85
2022/03/29 03:41:39;;;;;;;29.42;16.45;;;;;;;9.84;100.00;101212.53;5071818;28;20048;-87
2022/03/29 03:44:06;;;;;;;35.28;17.48;;;;;;;9.48;100.00;101159.44;5070366;28;20556;-87
2022/03/29 03:46:33;;;;;;;29.60;16.30;;;;;;;9.64;100.00;101165.97;5066803;28;20045;-86
2022/03/29 03:49:01;;;;;;;31.48;15.18;;;;;;;9.81;100.00;101178.59;5051637;28;20047;-87
2022/03/29 03:51:27;;;;;;;26.80;14.27;;;;;;;9.87;100.00;101212.44;5064076;28;20049;-87
2022/03/29 03:53:54;;;;;;;45.05;23.90;;;;;;;9.18;100.00;101164.56;5069605;28;20143;-85
2022/03/29 03:56:21;;;;;;;37.30;18.30;;;;;;;9.56;100.00;101173.19;5086429;28;20080;-86
2022/03/29 03:58:48;;;;;;;38.28;16.95;;;;;;;9.71;100.00;101169.28;5091473;28;20062;-87
2022/03/29 04:01:15;;;;;;;33.20;17.45;;;;;;;9.65;100.00;101179.91;5085985;28;20053;-86
2022/03/29 04:03:42;;;;;;;32.35;16.52;;;;;;;9.41;100.00;101153.53;5075112;28;20530;-87
2022/03/29 04:06:08;;;;;;;33.20;16.27;;;;;;;9.58;100.00;101188.81;5075686;28;20049;-87
2022/03/29 04:08:35;;;;;;;29.80;14.55;;;;;;;9.57;100.00;101177.50;5068135;28;20048;-87
2022/03/29 04:11:02;;;;;;;31.42;16.42;;;;;;;9.49;100.00;101169.00;5095846;28;20122;-87
2022/03/29 04:13:29;;;;;;;33.17;16.33;;;;;;;9.64;100.00;101186.91;5076962;28;20091;-87
2022/03/29 04:15:56;;;;;;;29.17;16.13;;;;;;;9.65;100.00;101201.69;5076072;28;20465;-86
2022/03/29 04:18:28;;;;;;;30.25;16.33;;;;;;;9.57;100.00;101155.75;5074247;28;20071;-87
2022/03/29 04:20:55;;;;;;;35.40;17.23;;;;;;;9.62;100.00;101172.16;5070731;28;20053;-86
2022/03/29 04:23:21;;;;;;;36.30;17.60;;;;;;;9.25;100.00;101165.28;5065978;28;20053;-88
2022/03/29 04:25:48;;;;;;;38.70;20.98;;;;;;;9.42;100.00;101181.38;5075719;28;20052;-88
2022/03/29 04:28:15;;;;;;;35.50;19.42;;;;;;;9.51;100.00;101209.03;5063443;28;20044;-87
2022/03/29 04:30:42;;;;;;;45.38;20.63;;;;;;;9.25;100.00;101142.59;5075635;28;20052;-87
2022/03/29 04:33:09;;;;;;;30.92;16.02;;;;;;;9.61;100.00;101180.88;5074235;28;20050;-87
2022/03/29 04:35:36;;;;;;;31.38;14.85;;;;;;;9.74;100.00;101181.41;5070240;28;20049;-83
2022/03/29 04:38:02;;;;;;;39.13;18.73;;;;;;;9.76;100.00;101192.72;5062029;28;20485;-85
2022/03/29 04:40:29;;;;;;;40.67;18.63;;;;;;;9.63;100.00;101193.03;5073851;28;20040;-87
2022/03/29 04:43:00;;;;;;;41.22;20.88;;;;;;;9.40;100.00;101158.78;5074079;28;20409;-87
2022/03/29 04:45:27;;;;;;;40.50;20.40;;;;;;;9.08;100.00;101132.59;5074145;28;20076;-87
2022/03/29 04:47:54;;;;;;;42.17;21.65;;;;;;;9.36;100.00;101201.59;5073150;28;20048;-87
2022/03/29 04:50:21;;;;;;;44.70;22.20;;;;;;;9.22;100.00;101200.16;5074605;28;20127;-87
2022/03/29 04:52:47;;;;;;;45.53;22.08;;;;;;;9.02;100.00;101187.59;5072306;28;20075;-86
2022/03/29 04:55:15;;;;;;;43.10;21.40;;;;;;;9.13;100.00;101193.41;5072192;28;20402;-87
2022/03/29 04:57:43;;;;;;;39.00;20.90;;;;;;;8.76;100.00;101179.50;5069470;28;20048;-85
2022/03/29 05:00:12;;;;;;;41.50;21.75;;;;;;;8.86;100.00;101201.91;5052713;28;20045;-85
2022/03/29 05:02:43;;;;;;;42.90;24.30;;;;;;;8.70;100.00;101204.00;5061287;28;20711;-85
2022/03/29 05:05:11;;;;;;;38.30;18.38;;;;;;;8.65;100.00;101183.22;5072054;28;20052;-86
2022/03/29 05:07:37;;;;;;;35.35;19.80;;;;;;;9.06;100.00;101190.97;5071818;28;20044;-87
2022/03/29 05:10:05;;;;;;;32.30;17.75;;;;;;;8.93;100.00;101193.03;5071516;28;20044;-87
2022/03/29 05:12:38;;;;;;;34.15;18.80;;;;;;;9.07;100.00;101190.94;5072843;28;20051;-87
2022/03/29 05:15:06;;;;;;;;;;;;;;;9.24;100.00;101195.78;5072617;28;20045;-87
2022/03/29 05:17:33;;;;;;;26.70;14.35;;;;;;;9.04;100.00;101179.72;5071946;28;19920;-86
2022/03/29 05:20:02;;;;;;;35.17;19.67;;;;;;;9.02;100.00;101171.06;5071454;28;20045;-86
2022/03/29 05:22:29;;;;;;;37.08;19.17;;;;;;;8.67;100.00;101184.03;5070889;28;20482;-87
2022/03/29 05:24:56;;;;;;;47.42;23.70;;;;;;;8.64;100.00;101178.91;5072969;28;20052;-86
2022/03/29 05:27:22;;;;;;;38.50;20.98;;;;;;;8.70;100.00;101185.72;5071369;28;20135;-86
2022/03/29 05:29:49;;;;;;;44.75;23.35;;;;;;;8.42;100.00;101196.75;5071477;28;20050;-86
2022/03/29 05:32:18;;;;;;;28.67;16.58;;;;;;;8.73;100.00;101186.53;5071984;28;20051;-86
2022/03/29 05:34:48;;;;;;;36.28;19.20;;;;;;;8.61;100.00;101189.41;5072660;28;20094;-87
2022/03/29 05:37:15;;;;;;;40.60;19.80;;;;;;;8.52;100.00;101198.28;5065018;28;20094;-86
2022/03/29 05:39:43;;;;;;;37.70;19.38;;;;;;;8.80;100.00;101188.97;5070780;28;20094;-86
2022/03/29 05:42:11;;;;;;;37.45;18.17;;;;;;;8.68;100.00;101161.41;5069770;28;20053;-86
2022/03/29 05:44:38;;;;;;;32.22;14.65;;;;;;;8.88;100.00;101163.56;5073189;28;20059;-86
2022/03/29 05:49:52;;;;;;;39.22;20.92;;;;;;;8.45;100.00;101173.22;5072921;28;20497;-86
2022/03/29 05:52:22;;;;;;;48.90;22.40;;;;;;;8.39;100.00;101169.84;5070533;28;20047;-87
2022/03/29 05:54:49;;;;;;;36.63;19.27;;;;;;;8.49;100.00;101171.41;5068399;28;20402;-87
2022/03/29 05:57:17;;;;;;;38.80;18.95;;;;;;;8.51;100.00;101162.63;5061496;28;20392;-85
2022/03/29 05:59:45;;;;;;;35.45;18.90;;;;;;;8.90;100.00;101174.81;5063948;28;20136;-86
2022/03/29 06:02:12;;;;;;;46.70;21.42;;;;;;;8.76;100.00;101163.84;5071542;28;20609;-87
2022/03/29 06:04:39;;;;;;;37.67;17.70;;;;;;;9.12;100.00;101177.78;5025739;28;1206774;-87
2022/03/29 06:07:07;;;;;;;45.20;21.67;;;;;;;9.12;100.00;101176.03;5073807;28;20052;-93
2022/03/29 06:09:35;;;;;;;43.65;20.27;;;;;;;9.10;100.00;101154.31;5072143;28;20457;-89
2022/03/29 06:12:03;;;;;;;33.95;16.33;;;;;;;9.10;100.00;101146.47;5068097;28;20044;-88
2022/03/29 06:14:29;;;;;;;32.72;17.55;;;;;;;9.27;100.00;101166.09;5072453;28;20048;-89
2022/03/29 06:16:56;;;;;;;33.10;17.42;;;;;;;9.18;100.00;101161.09;5064120;28;20475;-87
2022/03/29 06:19:23;;;;;;;62.35;26.75;;;;;;;9.05;100.00;101169.25;5061089;28;20051;-88
2022/03/29 06:21:50;;;;;;;38.33;18.38;;;;;;;9.30;100.00;101163.41;5058290;28;20049;-88
2022/03/29 06:24:17;;;;;;;40.95;19.45;;;;;;;9.34;100.00;101156.34;5062328;28;20055;-88
2022/03/29 06:26:44;;;;;;;39.47;18.00;;;;;;;9.31;100.00;101163.38;5065247;28;20040;-88
2022/03/29 06:29:11;;;;;;;48.67;21.77;;;;;;;9.49;100.00;101179.44;5058872;28;20040;-88
2022/03/29 06:31:39;;;;;;;52.15;24.88;;;;;;;9.24;100.00;101177.47;5065598;28;20045;-89
2022/03/29 06:34:06;;;;;;;58.85;27.15;;;;;;;8.95;100.00;101166.88;5065496;28;20048;-89
2022/03/29 06:36:33;;;;;;;34.13;18.83;;;;;;;9.43;100.00;101169.16;5062772;28;20491;-89
2022/03/29 06:39:03;;;;;;;43.00;20.70;;;;;;;9.54;100.00;101164.50;5069294;28;20052;-89
2022/03/29 06:41:30;;;;;;;43.90;17.45;;;;;;;9.63;100.00;101159.06;5062651;28;20045;-87
2022/03/29 06:43:57;;;;;;;53.40;23.35;;;;;;;9.48;100.00;101159.44;5059517;28;20072;-88
2022/03/29 06:46:25;;;;;;;44.70;16.02;;;;;;;9.38;100.00;101161.44;5068871;28;20053;-87
2022/03/29 06:48:54;;;;;;;38.45;15.10;;;;;;;9.48;100.00;101151.59;5070287;28;20048;-88
2022/03/29 06:51:20;;;;;;;58.92;23.98;;;;;;;9.24;100.00;101166.16;5063764;28;20058;-86
2022/03/29 06:53:48;;;;;;;44.90;21.25;;;;;;;9.49;100.00;101162.03;5065429;28;20761;-84
2022/03/29 06:56:16;;;;;;;46.15;20.17;;;;;;;9.46;100.00;101187.38;5061123;28;20053;-85
2022/03/29 06:58:43;;;;;;;33.45;15.40;;;;;;;9.60;100.00;101164.34;5060795;28;20068;-86
2022/03/29 07:01:10;;;;;;;53.22;21.73;;;;;;;9.57;100.00;101158.34;5070365;28;20128;-84
2022/03/29 07:03:37;;;;;;;45.13;19.20;;;;;;;9.76;100.00;101158.72;5069906;28;20057;-86
2022/03/29 07:06:04;;;;;;;44.50;20.05;;;;;;;9.75;100.00;101180.53;5068750;28;21407;-86
2022/03/29 07:08:32;;;;;;;47.10;18.52;;;;;;;9.63;100.00;101179.97;5064888;28;20658;-86
2022/03/29 07:11:16;;;;;;;35.95;15.10;;;;;;;9.69;100.00;101184.16;5071558;28;20044;-86
2022/03/29 07:13:44;;;;;;;44.80;18.23;;;;;;;9.57;100.00;101135.66;5069508;28;20139;-86
2022/03/29 07:16:14;;;;;;;45.03;19.20;;;;;;;9.93;100.00;101174.78;5072180;28;20647;-88
2022/03/29 07:18:46;;;;;;;45.63;18.27;;;;;;;9.87;100.00;101161.88;5070607;28;20156;-87
2022/03/29 07:21:12;;;;;;;34.97;15.20;;;;;;;9.85;100.00;101167.16;5065134;28;20045;-87
2022/03/29 07:23:40;;;;;;;35.92;15.55;;;;;;;10.01;100.00;101172.81;5070777;28;20127;-90
2022/03/29 07:26:07;;;;;;;49.55;16.85;;;;;;;9.97;100.00;101170.31;5068885;28;20534;-86
2022/03/29 07:28:33;;;;;;;30.27;12.75;;;;;;;10.27;100.00;101179.06;5063214;28;20139;-88
2022/03/29 07:31:00;;;;;;;53.17;20.52;;;;;;;10.00;100.00;101152.78;5063714;28;20049;-88
2022/03/29 07:33:27;;;;;;;39.50;16.67;;;;;;;9.66;100.00;101122.34;5065232;28;20530;-89
2022/03/29 07:35:55;;;;;;;41.17;15.35;;;;;;;9.95;100.00;101175.63;5071945;28;20358;-88
2022/03/29 07:38:22;;;;;;;40.47;18.10;;;;;;;9.99;100.00;101190.31;5065279;28;20048;-87
2022/03/29 07:40:49;;;;;;;51.25;19.10;;;;;;;9.52;100.00;101162.84;5065176;28;20049;-88
2022/03/29 07:43:16;;;;;;;48.20;19.40;;;;;;;9.59;100.00;101191.38;5068003;28;20410;-87
2022/03/29 07:45:49;;;;;;;56.93;21.40;;;;;;;9.56;100.00;101191.50;5069639;28;20052;-87
2022/03/29 07:48:16;;;;;;;48.65;16.92;;;;;;;9.44;100.00;101129.91;5066505;28;20290;-89
2022/03/29 07:51:04;;;;;;;38.47;15.60;;;;;;;9.99;100.00;101182.47;5060524;28;21366;-89
2022/03/29 07:53:32;;;;;;;55.50;25.30;;;;;;;9.26;100.00;101146.06;5069392;28;20048;-88
2022/03/29 07:55:58;;;;;;;61.35;29.95;;;;;;;9.18;100.00;101190.69;5071006;28;20131;-86
2022/03/29 07:58:25;;;;;;;59.15;26.17;;;;;;;9.13;100.00;101169.88;5070337;28;20129;-87
2022/03/29 08:00:53;;;;;;;47.47;21.80;;;;;;;9.36;100.00;101172.84;5070137;28;20040;-86
2022/03/29 08:03:21;;;;;;;41.55;19.63;;;;;;;9.45;100.00;101188.28;5068898;28;20044;-87
2022/03/29 08:05:50;;;;;;;39.20;19.65;;;;;;;9.61;100.00;101191.34;5071799;28;20474;-87
2022/03/29 08:08:17;;;;;;;42.22;19.60;;;;;;;9.59;100.00;101182.69;5061599;28;20045;-86
2022/03/29 08:10:46;;;;;;;40.70;19.83;;;;;;;9.43;100.00;101156.94;5069776;28;20127;-85
2022/03/29 08:13:14;;;;;;;45.35;20.42;;;;;;;9.43;100.00;101179.63;5069788;28;20092;-86
2022/03/29 08:15:43;;;;;;;40.85;20.48;;;;;;;9.63;100.00;101168.63;5069517;28;20094;-87
2022/03/29 08:18:10;;;;;;;50.10;23.67;;;;;;;9.58;100.00;101160.94;5069157;28;20048;-87
2022/03/29 08:20:38;;;;;;;41.78;19.52;;;;;;;9.57;100.00;101153.97;5065984;28;20041;-86
2022/03/29 08:23:05;;;;;;;59.15;25.50;;;;;;;9.21;100.00;101137.50;5058759;28;20542;-87
2022/03/29 08:25:34;;;;;;;40.22;17.52;;;;;;;9.18;100.00;101184.59;5066601;28;20482;-87
2022/03/29 08:28:01;;;;;;;47.53;19.08;;;;;;;9.79;100.00;101150.78;5065864;28;20623;-88
2022/03/29 08:30:30;;;;;;;56.08;23.95;;;;;;;9.26;100.00;101152.16;5060699;28;20041;-87
2022/03/29 08:32:58;;;;;;;48.28;22.35;;;;;;;9.49;100.00;101171.59;5064618;28;20126;-87
2022/03/29 08:35:28;;;;;;;44.88;19.15;;;;;;;10.02;100.00;101171.03;5070069;28;20049;-87
2022/03/29 08:37:55;;;;;;;36.35;19.15;;;;;;;9.33;100.00;101103.22;5065617;28;20051;-87
2022/03/29 08:40:44;;;;;;;49.03;20.73;;;;;;;9.16;100.00;101128.94;5066977;28;20036;-87
2022/03/29 08:43:13;;;;;;;39.28;18.40;;;;;;;9.63;100.00;101145.97;5064909;28;20479;-88
2022/03/29 08:45:46;;;;;;;51.75;22.17;;;;;;;9.34;100.00;101143.28;5052562;28;20048;-88
2022/03/29 08:48:14;;;;;;;37.65;18.30;;;;;;;9.93;100.00;101166.94;5065165;28;20387;-87
2022/03/29 08:50:42;;;;;;;35.20;16.88;;;;;;;9.90;100.00;101151.34;5069595;28;20048;-87
2022/03/29 08:53:11;;;;;;;37.58;17.77;;;;;;;9.71;100.00;101113.53;5073897;28;20048;-88
2022/03/29 08:55:42;;;;;;;40.95;22.00;;;;;;;9.87;100.00;101167.97;5074406;28;20048;-87
2022/03/29 08:58:13;;;;;;;49.85;26.33;;;;;;;9.43;100.00;101156.94;5074339;28;20139;-87
2022/03/29 09:00:45;;;;;;;47.55;22.88;;;;;;;9.61;100.00;101163.44;5073284;28;20045;-87
2022/03/29 09:03:16;;;;;;;38.17;19.50;;;;;;;9.70;100.00;101133.56;5068840;28;20095;-88
2022/03/29 09:05:43;;;;;;;34.30;17.60;;;;;;;10.12;100.00;101163.81;5053199;28;20053;-88
2022/03/29 09:08:11;;;;;;;35.05;16.27;;;;;;;10.08;100.00;101140.34;5062582;28;20124;-88
2022/03/29 09:10:45;;;;;;;30.38;13.50;;;;;;;10.38;100.00;101153.47;5072569;28;20139;-88
2022/03/29 09:13:27;;;;;;;31.58;12.98;;;;;;;10.43;100.00;101119.31;5069966;28;20486;-87
2022/03/29 09:15:57;;;;;;;44.28;19.05;;;;;;;10.44;100.00;101131.47;5072012;28;20080;-88
2022/03/29 09:18:25;;;;;;;42.17;17.35;;;;;;;10.60;100.00;101147.56;5072771;28;20052;-88
2022/03/29 09:21:13;;;;;;;36.33;17.63;;;;;;;10.10;100.00;101144.69;5073872;28;20045;-88
2022/03/29 09:23:41;;;;;;;34.55;18.60;;;;;;;10.02;100.00;101145.75;5072061;28;20106;-87
2022/03/29 09:26:28;;;;;;;33.10;13.73;;;;;;;10.24;100.00;101119.81;5072574;28;20052;-88
2022/03/29 09:28:56;;;;;;;46.22;19.42;;;;;;;9.95;100.00;101138.13;5071388;28;20482;-88
2022/03/29 09:31:24;;;;;;;33.67;15.88;;;;;;;10.14;100.00;101144.53;5071824;28;20085;-88
2022/03/29 09:33:51;;;;;;;37.63;16.45;;;;;;;9.92;100.00;101096.38;5071407;28;20054;-85
2022/03/29 09:36:21;;;;;;;36.42;16.80;;;;;;;10.14;100.00;101128.84;5072791;28;20057;-88
2022/03/29 09:38:52;;;;;;;31.13;14.70;;;;;;;10.44;100.00;101134.09;5069748;28;20059;-88
2022/03/29 09:41:19;;;;;;;41.42;20.52;;;;;;;10.21;100.00;101140.84;5069378;28;20106;-87
2022/03/29 09:44:09;;;;;;;35.75;16.50;;;;;;;10.03;100.00;101116.06;5070672;28;20629;-88
2022/03/29 09:47:00;;;;;;;41.47;19.27;;;;;;;10.15;100.00;101135.78;5072200;28;20052;-88
2022/03/29 09:49:28;;;;;;;56.97;22.40;;;;;;;10.33;100.00;101134.41;5070954;28;20072;-85
2022/03/29 09:52:10;;;;;;;35.63;15.90;;;;;;;10.21;100.00;101082.41;5065048;28;20051;-87
2022/03/29 09:54:37;;;;;;;51.25;22.27;;;;;;;10.54;100.00;101127.66;5066354;28;20052;-88
2022/03/29 09:57:04;;;;;;;30.85;15.52;;;;;;;10.48;100.00;101093.81;5071740;28;20058;-88
2022/03/29 09:59:34;;;;;;;33.08;17.20;;;;;;;10.54;100.00;101138.13;5069202;28;20049;-87
2022/03/29 10:02:00;;;;;;;49.05;21.02;;;;;;;9.98;100.00;101104.88;5053608;28;20555;-88
2022/03/29 10:04:29;;;;;;;37.13;17.98;;;;;;;10.24;100.00;101121.59;5070670;28;20669;-88
2022/03/29 10:07:03;;;;;;;44.33;22.27;;;;;;;10.13;100.00;101116.66;5055233;28;20049;-88
2022/03/29 10:09:37;;;;;;;39.70;17.35;;;;;;;10.48;100.00;101120.00;5072393;28;20040;-88
2022/03/29 10:12:06;;;;;;;63.67;23.33;;;;;;;10.33;100.00;101125.72;5072647;28;20045;-88
2022/03/29 10:14:37;;;;;;;45.35;17.67;;;;;;;10.58;100.00;101141.53;5072338;28;20052;-87
2022/03/29 10:17:07;;;;;;;50.20;19.83;;;;;;;10.89;100.00;101132.69;5070577;28;20053;-88
2022/03/29 10:19:36;;;;;;;45.75;15.45;;;;;;;10.99;100.00;101103.50;5068488;28;20131;-87
2022/03/29 10:22:03;;;;;;;29.33;12.52;;;;;;;10.86;100.00;101133.66;5054995;28;20053;-88
2022/03/29 10:24:31;;;;;;;37.88;15.18;;;;;;;10.99;100.00;101134.94;5071543;28;20135;-87
2022/03/29 10:27:00;;;;;;;45.83;15.55;;;;;;;11.50;100.00;101109.63;5067993;28;20045;-88
2022/03/29 10:29:28;;;;;;;25.60;10.60;;;;;;;11.27;100.00;101086.84;5052209;28;20132;-88
2022/03/29 10:32:01;;;;;;;25.55;10.95;;;;;;;11.26;100.00;101103.50;5055280;28;20636;-88
2022/03/29 10:34:30;;;;;;;31.75;12.20;;;;;;;11.37;100.00;101114.47;5072937;28;20056;-88
2022/03/29 10:37:01;;;;;;;24.30;9.88;;;;;;;11.49;100.00;101107.06;5071839;28;20102;-88
2022/03/29 10:39:53;;;;;;;37.33;12.93;;;;;;;11.29;100.00;101113.84;5071580;28;20131;-89
2022/03/29 10:42:41;;;;;;;26.92;10.70;;;;;;;11.32;100.00;101111.13;5067676;28;20040;-89
2022/03/29 10:45:10;;;;;;;25.88;9.10;;;;;;;11.67;100.00;101108.16;5063640;28;20135;-89
2022/03/29 10:47:53;;;;;;;26.88;11.02;;;;;;;11.16;100.00;101112.56;5051993;28;20357;-88
2022/03/29 10:50:20;;;;;;;25.73;9.18;;;;;;;11.36;100.00;101115.34;5050446;28;20059;-88
2022/03/29 10:52:49;;;;;;;29.52;10.63;;;;;;;11.21;100.00;101095.78;5069722;28;20044;-88
2022/03/29 10:55:25;;;;;;;21.95;8.15;;;;;;;11.19;100.00;101062.66;5070989;28;20080;-88
2022/03/29 10:58:08;;;;;;;27.95;8.38;;;;;;;11.30;100.00;101093.75;5072229;28;20066;-88
2022/03/29 11:00:38;;;;;;;27.88;10.82;;;;;;;11.25;100.00;101108.78;5068806;28;20059;-88
2022/03/29 11:03:22;;;;;;;24.20;8.88;;;;;;;11.09;100.00;101090.13;5070598;28;20044;-89
2022/03/29 11:06:06;;;;;;;25.73;8.13;;;;;;;11.24;100.00;101117.56;5070887;28;20045;-88
2022/03/29 11:08:45;;;;;;;;;;;;;;;11.36;100.00;101117.97;5071533;28;20139;-88
2022/03/29 11:11:43;;;;;;;34.05;10.70;;;;;;;11.12;100.00;101114.44;5070939;28;19920;-87
2022/03/29 11:14:35;;;;;;;21.52;8.85;;;;;;;11.24;100.00;101115.78;5070155;28;20048;-87
2022/03/29 11:17:09;;;;;;;32.88;10.43;;;;;;;11.05;100.00;101118.19;5071170;28;20157;-88
2022/03/29 11:19:48;;;;;;;;;;;;;;;11.15;100.00;101116.09;5071270;28;20052;-88